createdAt,value
2022-12-04T00:01:10.200Z,13.07
2022-12-04T00:03:37.678Z,14.27
2022-12-04T00:06:05.651Z,14.23
2022-12-04T00:08:32.327Z,12.63
2022-12-04T00:10:59.145Z,13.20
2022-12-04T00:13:26.240Z,12.50
2022-12-04T00:15:53.689Z,12.40
2022-12-04T00:18:20.435Z,13.37
2022-12-04T00:20:47.998Z,12.33
2022-12-04T00:23:14.805Z,12.13
2022-12-04T00:25:41.698Z,13.23
2022-12-04T00:28:08.941Z,13.63
2022-12-04T00:30:35.532Z,12.87
2022-12-04T00:33:02.086Z,13.63
2022-12-04T00:35:28.695Z,12.37
2022-12-04T00:37:55.276Z,14.43
2022-12-04T00:40:21.857Z,12.27
2022-12-04T00:42:48.451Z,12.70
2022-12-04T00:45:15.168Z,12.93
2022-12-04T00:47:41.854Z,12.70
2022-12-04T00:50:08.985Z,13.10
2022-12-04T00:52:35.570Z,12.27
2022-12-04T00:55:02.152Z,12.33
2022-12-04T00:57:28.764Z,12.73
2022-12-04T00:59:55.703Z,11.97
2022-12-04T01:02:22.418Z,13.60
2022-12-04T01:04:49.040Z,13.53
2022-12-04T01:07:15.632Z,12.27
2022-12-04T01:09:42.234Z,13.70
2022-12-04T01:12:08.865Z,13.33
2022-12-04T01:14:35.504Z,13.00
2022-12-04T01:17:02.186Z,12.70
2022-12-04T01:19:28.853Z,12.83
2022-12-04T01:21:55.583Z,13.60
2022-12-04T01:24:22.215Z,12.90
2022-12-04T01:26:48.812Z,12.87
2022-12-04T01:29:15.391Z,11.73
2022-12-04T01:31:42.014Z,14.23
2022-12-04T01:34:08.704Z,12.97
2022-12-04T01:36:35.261Z,13.23
2022-12-04T01:39:01.934Z,13.40
2022-12-04T01:41:30.561Z,13.00
2022-12-04T01:44:16.650Z,13.60
2022-12-04T01:47:03.455Z,13.43
2022-12-04T01:49:35.750Z,14.50
2022-12-04T01:52:07.406Z,13.53
2022-12-04T01:54:42.184Z,12.93
2022-12-04T01:57:17.660Z,12.20
2022-12-04T02:00:08.949Z,13.13
2022-12-04T02:02:39.396Z,12.63
2022-12-04T02:05:09.383Z,13.20
2022-12-04T02:07:38.410Z,12.40
2022-12-04T02:10:08.693Z,12.90
2022-12-04T02:12:51.579Z,12.10
2022-12-04T02:15:23.759Z,12.90
2022-12-04T02:18:01.496Z,12.70
2022-12-04T02:20:42.373Z,12.73
2022-12-04T02:23:28.614Z,12.03
2022-12-04T02:26:23.290Z,12.60
2022-12-04T02:28:51.767Z,12.23
2022-12-04T02:31:30.706Z,12.83
2022-12-04T02:34:09.650Z,11.83
2022-12-04T02:36:45.453Z,11.70
2022-12-04T02:39:27.168Z,11.67
2022-12-04T02:42:04.204Z,11.77
2022-12-04T02:44:34.150Z,12.80
2022-12-04T02:47:04.728Z,12.37
2022-12-04T02:49:37.962Z,11.67
2022-12-04T02:52:11.498Z,12.50
2022-12-04T02:54:43.479Z,12.27
2022-12-04T02:57:16.002Z,13.20
2022-12-04T02:59:45.227Z,12.40
2022-12-04T03:02:46.366Z,12.40
2022-12-04T03:05:18.497Z,11.20
2022-12-04T03:07:50.990Z,12.70
2022-12-04T03:10:23.809Z,12.50
2022-12-04T03:12:53.250Z,12.40
2022-12-04T03:15:37.760Z,12.40
2022-12-04T03:18:11.381Z,12.23
2022-12-04T03:20:39.218Z,12.30
2022-12-04T03:23:24.161Z,11.80
2022-12-04T03:26:01.179Z,12.03
2022-12-04T03:28:39.389Z,12.00
2022-12-04T03:31:09.450Z,11.73
2022-12-04T03:33:42.607Z,12.10
2022-12-04T03:36:13.800Z,11.70
2022-12-04T03:38:46.350Z,12.50
2022-12-04T03:41:17.856Z,11.77
2022-12-04T03:43:50.817Z,11.67
2022-12-04T03:46:38.762Z,11.40
2022-12-04T03:49:31.329Z,11.77
2022-12-04T03:52:00.763Z,11.83
2022-12-04T03:54:32.749Z,11.83
2022-12-04T03:57:08.716Z,11.63
2022-12-04T04:00:00.293Z,11.53
2022-12-04T04:02:33.370Z,11.87
2022-12-04T04:05:02.686Z,10.93
2022-12-04T04:07:35.832Z,11.47
2022-12-04T04:10:13.506Z,11.30
2022-12-04T04:13:11.108Z,10.77
2022-12-04T04:16:00.952Z,11.47
2022-12-04T04:18:47.224Z,10.53
2022-12-04T04:21:38.580Z,11.93
2022-12-04T04:24:14.309Z,12.00
2022-12-04T04:26:46.674Z,11.60
2022-12-04T04:29:13.906Z,11.00
2022-12-04T04:32:14.120Z,9.30
2022-12-04T04:35:03.751Z,10.97
2022-12-04T04:37:58.108Z,11.87
2022-12-04T04:40:51.273Z,10.63
2022-12-04T04:43:23.833Z,11.17
2022-12-04T04:46:08.462Z,11.43
2022-12-04T04:48:41.253Z,12.03
2022-12-04T04:51:08.414Z,11.37
2022-12-04T04:53:45.469Z,11.83
2022-12-04T04:56:12.450Z,11.70
2022-12-04T04:58:39.115Z,10.93
2022-12-04T05:01:11.066Z,10.53
2022-12-04T05:03:38.278Z,11.37
2022-12-04T05:06:04.995Z,10.87
2022-12-04T05:08:31.677Z,10.87
2022-12-04T05:10:58.358Z,11.03
2022-12-04T05:13:25.482Z,11.23
2022-12-04T05:15:59.032Z,11.03
2022-12-04T05:18:26.064Z,9.87
2022-12-04T05:20:53.113Z,11.03
2022-12-04T05:23:20.065Z,10.83
2022-12-04T05:25:46.643Z,11.70
2022-12-04T05:28:13.549Z,11.63
2022-12-04T05:30:40.261Z,11.13
2022-12-04T05:33:06.893Z,10.50
2022-12-04T05:35:33.614Z,11.83
2022-12-04T05:38:00.203Z,10.13
2022-12-04T05:40:26.806Z,10.77
2022-12-04T05:42:53.402Z,11.33
2022-12-04T05:45:19.973Z,11.23
2022-12-04T05:47:46.621Z,10.63
2022-12-04T05:50:13.737Z,11.03
2022-12-04T05:52:40.318Z,9.80
2022-12-04T05:55:07.255Z,11.27
2022-12-04T05:57:33.884Z,10.93
2022-12-04T06:00:00.493Z,10.53
2022-12-04T06:02:27.224Z,11.43
2022-12-04T06:04:53.815Z,11.57
2022-12-04T06:07:20.446Z,12.07
2022-12-04T06:09:47.008Z,11.10
2022-12-04T06:12:13.585Z,11.30
2022-12-04T06:14:40.231Z,10.70
2022-12-04T06:17:07.362Z,10.97
2022-12-04T06:19:34.002Z,11.13
2022-12-04T06:22:00.582Z,11.00
2022-12-04T06:24:27.287Z,11.03
2022-12-04T06:29:45.751Z,11.87
2022-12-04T06:32:16.456Z,11.80
2022-12-04T06:34:52.972Z,11.37
2022-12-04T06:37:20.899Z,11.87
2022-12-04T06:39:47.530Z,11.60
2022-12-04T06:42:14.151Z,12.30
2022-12-04T06:44:40.736Z,13.57
2022-12-04T06:47:08.342Z,12.77
2022-12-04T06:49:36.171Z,11.93
2022-12-04T06:52:02.876Z,12.33
2022-12-04T06:54:29.471Z,12.50
2022-12-04T06:56:56.018Z,12.10
2022-12-04T06:59:22.610Z,12.47
2022-12-04T07:01:49.333Z,11.57
2022-12-04T07:04:15.959Z,11.77
2022-12-04T07:06:42.601Z,11.43
2022-12-04T07:09:16.641Z,11.07
2022-12-04T07:11:44.297Z,10.40
2022-12-04T07:14:12.441Z,11.00
2022-12-04T07:16:42.037Z,10.40
2022-12-04T07:19:13.775Z,10.00
2022-12-04T07:21:41.338Z,10.77
2022-12-04T07:24:08.630Z,12.07
2022-12-04T07:26:35.472Z,10.87
2022-12-04T07:29:02.179Z,12.33
2022-12-04T07:31:29.988Z,12.00
2022-12-04T07:33:57.645Z,11.70
2022-12-04T07:36:25.603Z,11.47
2022-12-04T07:38:52.761Z,13.30
2022-12-04T07:41:19.635Z,12.80
2022-12-04T07:43:46.546Z,13.60
2022-12-04T07:46:19.327Z,12.33
2022-12-04T07:48:46.358Z,13.13
2022-12-04T07:51:14.419Z,12.67
2022-12-04T07:53:41.385Z,12.97
2022-12-04T07:56:09.692Z,12.63
2022-12-04T07:58:36.512Z,12.63
2022-12-04T08:01:23.277Z,13.30
2022-12-04T08:03:52.402Z,12.67
2022-12-04T08:06:21.308Z,12.67
2022-12-04T08:08:48.942Z,12.37
2022-12-04T08:11:19.526Z,13.13
2022-12-04T08:13:46.227Z,12.60
2022-12-04T08:16:14.199Z,12.53
2022-12-04T08:18:42.660Z,12.27
2022-12-04T08:21:11.803Z,12.27
2022-12-04T08:23:39.897Z,13.37
2022-12-04T08:26:07.877Z,12.17
2022-12-04T08:28:35.524Z,12.27
2022-12-04T08:31:13.456Z,12.27
2022-12-04T08:33:41.267Z,11.97
2022-12-04T08:36:10.392Z,11.80
2022-12-04T08:38:37.293Z,13.23
2022-12-04T08:41:06.094Z,13.10
2022-12-04T08:43:32.871Z,12.80
2022-12-04T08:46:01.717Z,12.60
2022-12-04T08:48:28.596Z,12.33
2022-12-04T08:50:56.044Z,13.27
2022-12-04T08:53:23.429Z,12.93
2022-12-04T08:55:50.698Z,13.07
2022-12-04T08:58:17.780Z,12.37
2022-12-04T09:00:44.770Z,12.33
2022-12-04T09:03:16.691Z,12.17
2022-12-04T09:05:45.909Z,12.20
2022-12-04T09:08:14.204Z,11.83
2022-12-04T09:10:41.182Z,12.83
2022-12-04T09:13:08.472Z,12.17
2022-12-04T09:15:39.104Z,11.10
2022-12-04T09:18:06.158Z,12.30
2022-12-04T09:20:32.813Z,11.73
2022-12-04T09:23:04.279Z,11.33
2022-12-04T09:25:34.669Z,11.90
2022-12-04T09:28:01.233Z,11.17
2022-12-04T09:30:27.926Z,13.53
2022-12-04T09:32:54.544Z,11.40
2022-12-04T09:35:21.134Z,12.60
2022-12-04T09:37:47.686Z,11.93
2022-12-04T09:40:33.458Z,12.03
2022-12-04T09:43:39.029Z,11.47
2022-12-04T09:46:15.078Z,10.90
2022-12-04T09:48:44.371Z,12.33
2022-12-04T09:51:18.641Z,12.23
2022-12-04T09:53:52.026Z,11.93
2022-12-04T09:56:20.858Z,11.90
2022-12-04T09:58:52.056Z,11.03
2022-12-04T10:01:35.275Z,10.57
2022-12-04T10:04:05.939Z,11.27
2022-12-04T10:06:44.139Z,11.77
2022-12-04T10:09:31.659Z,10.77
2022-12-04T10:12:19.888Z,10.67
2022-12-04T10:14:46.454Z,11.47
2022-12-04T10:17:32.991Z,11.73
2022-12-04T10:20:11.703Z,11.97
2022-12-04T10:22:38.262Z,11.50
2022-12-04T10:25:22.411Z,10.77
2022-12-04T10:27:55.095Z,10.53
2022-12-04T10:30:28.600Z,11.00
2022-12-04T10:33:04.945Z,11.40
2022-12-04T10:35:35.011Z,10.80
2022-12-04T10:38:10.564Z,10.63
2022-12-04T10:41:21.867Z,10.50
2022-12-04T10:43:50.081Z,10.63
2022-12-04T10:46:24.874Z,11.47
2022-12-04T10:49:04.727Z,11.60
2022-12-04T10:51:38.749Z,10.70
2022-12-04T10:54:18.672Z,11.33
2022-12-04T10:57:00.033Z,11.70
2022-12-04T10:59:27.955Z,11.37
2022-12-04T11:02:07.307Z,11.07
2022-12-04T11:04:35.621Z,11.50
2022-12-04T11:07:07.019Z,11.37
2022-12-04T11:09:34.295Z,12.33
2022-12-04T11:12:18.937Z,11.93
2022-12-04T11:14:47.381Z,11.07
2022-12-04T11:17:18.365Z,11.93
2022-12-04T11:19:47.282Z,11.50
2022-12-04T11:22:18.009Z,12.30
2022-12-04T11:24:52.881Z,11.97
2022-12-04T11:27:24.666Z,11.57
2022-12-04T11:29:51.913Z,11.73
2022-12-04T11:32:25.113Z,12.87
2022-12-04T11:34:57.194Z,13.27
2022-12-04T11:37:33.727Z,14.40
2022-12-04T11:40:03.650Z,12.13
2022-12-04T11:42:31.813Z,12.27
2022-12-04T11:45:23.039Z,12.63
2022-12-04T11:47:55.578Z,12.13
2022-12-04T11:50:30.071Z,11.50
2022-12-04T11:52:59.337Z,13.50
2022-12-04T11:55:42.017Z,12.50
2022-12-04T11:58:38.339Z,10.90
2022-12-04T12:01:44.161Z,11.57
2022-12-04T12:04:45.534Z,10.73
2022-12-04T12:07:23.474Z,11.27
2022-12-04T12:10:05.013Z,12.73
2022-12-04T12:12:53.330Z,10.57
2022-12-04T12:15:57.285Z,11.83
2022-12-04T12:18:48.595Z,11.40
2022-12-04T12:21:39.451Z,10.83
2022-12-04T12:24:18.406Z,11.40
2022-12-04T12:27:22.561Z,11.10
2022-12-04T12:30:04.459Z,11.50
2022-12-04T12:32:38.102Z,11.53
2022-12-04T12:35:19.292Z,11.63
2022-12-04T12:37:55.319Z,12.47
2022-12-04T12:40:41.114Z,11.43
2022-12-04T12:43:16.214Z,11.30
2022-12-04T12:45:55.267Z,12.20
2022-12-04T12:48:24.930Z,12.83
2022-12-04T12:51:29.665Z,11.53
2022-12-04T12:54:03.720Z,11.43
2022-12-04T12:56:38.345Z,11.47
2022-12-04T12:59:10.270Z,10.80
2022-12-04T13:01:41.673Z,12.20
2022-12-04T13:04:20.575Z,11.80
2022-12-04T13:06:52.948Z,11.97
2022-12-04T13:09:27.526Z,12.37
2022-12-04T13:12:01.725Z,12.87
2022-12-04T13:14:28.340Z,12.10
2022-12-04T13:17:04.929Z,12.97
2022-12-04T13:19:43.504Z,12.47
2022-12-04T13:22:41.163Z,12.87
2022-12-04T13:25:31.471Z,11.47
2022-12-04T13:28:10.813Z,12.83
2022-12-04T13:31:01.417Z,12.77
2022-12-04T13:33:30.630Z,11.17
2022-12-04T13:36:17.787Z,11.43
2022-12-04T13:39:18.071Z,11.70
2022-12-04T13:41:44.751Z,11.53
2022-12-04T13:44:14.616Z,12.43
2022-12-04T13:46:52.678Z,12.37
2022-12-04T13:49:25.578Z,11.77
2022-12-04T13:51:53.659Z,12.50
2022-12-04T13:54:22.234Z,13.13
2022-12-04T13:56:52.681Z,14.10
2022-12-04T13:59:28.444Z,13.00
2022-12-04T14:02:01.288Z,13.03
2022-12-04T14:04:47.153Z,12.77
2022-12-04T14:07:42.951Z,13.50
2022-12-04T14:10:15.376Z,13.10
2022-12-04T14:12:49.930Z,14.00
2022-12-04T14:15:24.618Z,12.23
2022-12-04T14:18:01.534Z,13.20
2022-12-04T14:20:30.790Z,12.63
2022-12-04T14:23:07.753Z,13.67
2022-12-04T14:25:39.773Z,13.40
2022-12-04T14:28:31.306Z,13.13
2022-12-04T14:31:18.149Z,12.20
2022-12-04T14:33:49.455Z,11.43
2022-12-04T14:36:24.894Z,12.07
2022-12-04T14:39:03.337Z,11.57
2022-12-04T14:41:30.407Z,11.07
2022-12-04T14:43:57.522Z,13.57
2022-12-04T14:46:42.973Z,12.77
2022-12-04T14:49:28.524Z,13.50
2022-12-04T14:52:24.067Z,13.27
2022-12-04T14:55:07.472Z,12.47
2022-12-04T14:57:55.466Z,13.07
2022-12-04T15:00:24.210Z,12.57
2022-12-04T15:02:59.694Z,12.00
2022-12-04T15:05:29.744Z,12.00
2022-12-04T15:08:02.227Z,11.57
2022-12-04T15:10:49.977Z,12.57
2022-12-04T15:13:34.808Z,11.97
2022-12-04T15:16:22.811Z,11.90
2022-12-04T15:18:57.725Z,13.30
2022-12-04T15:21:33.449Z,13.60
2022-12-04T15:24:00.056Z,11.93
2022-12-04T15:26:26.944Z,12.77
2022-12-04T15:29:03.191Z,13.00
2022-12-04T15:31:46.920Z,12.47
2022-12-04T15:34:17.338Z,12.57
2022-12-04T15:36:51.600Z,12.53
2022-12-04T15:39:29.263Z,12.37
2022-12-04T15:42:24.710Z,13.57
2022-12-04T15:45:01.700Z,11.80
2022-12-04T15:47:50.742Z,12.83
2022-12-04T15:50:17.260Z,12.90
2022-12-04T15:52:57.176Z,12.60
2022-12-04T15:55:25.393Z,12.73
2022-12-04T15:58:02.118Z,12.27
2022-12-04T16:00:32.743Z,13.73
2022-12-04T16:03:00.517Z,12.67
2022-12-04T16:05:34.859Z,13.27
2022-12-04T16:08:23.309Z,12.97
2022-12-04T16:10:57.689Z,13.80
2022-12-04T16:13:32.716Z,13.57
2022-12-04T16:16:00.170Z,12.97
2022-12-04T16:18:28.403Z,14.40
2022-12-04T16:20:55.620Z,13.80
2022-12-04T16:23:26.693Z,13.53
2022-12-04T16:25:53.875Z,13.77
2022-12-04T16:28:20.884Z,13.03
2022-12-04T16:30:47.763Z,14.33
2022-12-04T16:33:15.800Z,13.60
2022-12-04T16:35:42.980Z,14.20
2022-12-04T16:38:15.888Z,13.90
2022-12-04T16:40:44.727Z,13.67
2022-12-04T16:43:13.913Z,14.43
2022-12-04T16:45:46.666Z,14.27
2022-12-04T16:48:14.014Z,13.03
2022-12-04T16:50:41.164Z,13.77
2022-12-04T16:53:07.764Z,13.57
2022-12-04T16:55:38.082Z,14.17
2022-12-04T16:58:06.202Z,14.10
2022-12-04T17:00:32.967Z,15.27
2022-12-04T17:03:01.741Z,14.37
2022-12-04T17:05:30.004Z,14.20
2022-12-04T17:07:56.641Z,15.23
2022-12-04T17:10:24.532Z,13.00
2022-12-04T17:12:55.055Z,14.33
2022-12-04T17:15:22.550Z,14.20
2022-12-04T17:17:49.180Z,14.47
2022-12-04T17:20:18.255Z,14.80
2022-12-04T17:22:45.065Z,14.13
2022-12-04T17:25:12.678Z,13.23
2022-12-04T17:27:39.463Z,12.53
2022-12-04T17:30:07.960Z,14.73
2022-12-04T17:32:35.003Z,13.87
2022-12-04T17:35:02.789Z,14.23
2022-12-04T17:37:29.403Z,13.43
2022-12-04T17:39:56.059Z,13.23
2022-12-04T17:42:22.623Z,13.43
2022-12-04T17:44:49.419Z,12.90
2022-12-04T17:47:16.119Z,13.53
2022-12-04T17:49:43.200Z,13.63
2022-12-04T17:52:10.109Z,13.43
2022-12-04T17:54:36.794Z,13.57
2022-12-04T17:57:03.506Z,12.57
2022-12-04T17:59:30.074Z,13.87
2022-12-04T18:01:56.697Z,12.47
2022-12-04T18:04:23.560Z,12.73
2022-12-04T18:06:50.142Z,12.77
2022-12-04T18:09:17.202Z,11.90
2022-12-04T18:11:46.554Z,12.77
2022-12-04T18:14:18.695Z,12.37
2022-12-04T18:16:47.747Z,12.47
2022-12-04T18:19:14.935Z,13.00
2022-12-04T18:21:41.622Z,11.97
2022-12-04T18:24:08.926Z,12.33
2022-12-04T18:26:39.141Z,12.33
2022-12-04T18:29:08.998Z,12.93
2022-12-04T18:31:35.685Z,12.30
2022-12-04T18:34:04.853Z,11.33
2022-12-04T18:36:32.479Z,12.30
2022-12-04T18:39:02.104Z,11.83
2022-12-04T18:41:29.362Z,13.57
2022-12-04T18:43:57.267Z,11.40
2022-12-04T18:46:25.086Z,12.83
2022-12-04T18:48:58.833Z,12.17
2022-12-04T18:51:40.087Z,12.20
2022-12-04T18:54:10.628Z,12.00
2022-12-04T18:56:37.801Z,12.03
2022-12-04T18:59:08.084Z,11.87
2022-12-04T19:01:34.951Z,12.87
2022-12-04T19:04:06.180Z,12.97
2022-12-04T19:06:35.775Z,11.37
2022-12-04T19:09:05.814Z,16.97
2022-12-04T19:11:33.188Z,11.07
2022-12-04T19:14:01.245Z,11.87
2022-12-04T19:16:28.454Z,12.43
2022-12-04T19:18:55.855Z,12.20
2022-12-04T19:21:22.621Z,11.47
2022-12-04T19:23:55.016Z,11.43
2022-12-04T19:26:21.599Z,10.23
2022-12-04T19:28:48.227Z,10.20
2022-12-04T19:31:24.298Z,10.83
2022-12-04T19:33:52.070Z,9.73
2022-12-04T19:36:19.157Z,10.50
2022-12-04T19:38:46.746Z,10.33
2022-12-04T19:41:19.313Z,10.40
2022-12-04T19:43:48.269Z,10.50
2022-12-04T19:46:18.212Z,10.67
2022-12-04T19:48:47.322Z,10.80
2022-12-04T19:51:19.039Z,10.13
2022-12-04T19:53:46.827Z,10.20
2022-12-04T19:56:24.185Z,10.17
2022-12-04T19:58:56.177Z,8.97
2022-12-04T20:01:25.312Z,9.93
2022-12-04T20:03:52.850Z,9.97
2022-12-04T20:06:20.935Z,9.63
2022-12-04T20:08:52.851Z,8.53
2022-12-04T20:11:19.906Z,7.97
2022-12-04T20:13:48.560Z,8.00
2022-12-04T20:16:18.335Z,8.20
2022-12-04T20:18:45.700Z,8.10
2022-12-04T20:21:13.083Z,8.80
2022-12-04T20:23:50.593Z,9.43
2022-12-04T20:26:20.404Z,8.80
2022-12-04T20:28:47.321Z,8.70
2022-12-04T20:31:25.867Z,8.23
2022-12-04T20:33:54.333Z,7.70
2022-12-04T20:36:22.953Z,7.50
2022-12-04T20:38:52.373Z,7.87
2022-12-04T20:41:18.996Z,7.37
2022-12-04T20:43:47.374Z,7.67
2022-12-04T20:46:17.137Z,7.67
2022-12-04T20:48:48.332Z,8.10
2022-12-04T20:51:20.199Z,8.10
2022-12-04T20:53:47.729Z,7.33
2022-12-04T20:56:14.347Z,7.87
2022-12-04T20:58:41.025Z,8.00
2022-12-04T21:01:09.684Z,8.60
2022-12-04T21:03:36.725Z,8.00
2022-12-04T21:06:04.024Z,8.00
2022-12-04T21:08:49.322Z,8.97
2022-12-04T21:11:15.903Z,7.13
2022-12-04T21:14:01.288Z,7.83
2022-12-04T21:16:28.144Z,7.53
2022-12-04T21:18:54.765Z,7.43
2022-12-04T21:21:21.362Z,7.93
2022-12-04T21:23:48.021Z,7.70
2022-12-04T21:26:14.860Z,6.87
2022-12-04T21:28:42.459Z,7.77
2022-12-04T21:31:09.251Z,6.97
2022-12-04T21:33:35.852Z,7.37
2022-12-04T21:36:09.458Z,6.63
2022-12-04T21:38:37.770Z,6.23
2022-12-04T21:41:06.991Z,6.07
2022-12-04T21:43:35.723Z,5.93
2022-12-04T21:46:09.646Z,6.67
2022-12-04T21:48:37.167Z,5.90
2022-12-04T21:51:21.258Z,5.83
2022-12-04T21:53:54.893Z,6.23
2022-12-04T21:56:22.573Z,5.50
2022-12-04T21:58:49.362Z,5.10
2022-12-04T22:01:17.739Z,5.17
2022-12-04T22:03:44.455Z,5.57
2022-12-04T22:06:11.393Z,5.00
2022-12-04T22:08:39.900Z,5.67
2022-12-04T22:11:08.372Z,5.53
2022-12-04T22:13:38.749Z,5.20
2022-12-04T22:16:08.756Z,5.30
2022-12-04T22:18:35.939Z,5.90
2022-12-04T22:21:07.475Z,5.37
2022-12-04T22:23:34.761Z,5.53
2022-12-04T22:26:10.363Z,4.87
2022-12-04T22:28:37.440Z,4.83
2022-12-04T22:31:06.852Z,5.00
2022-12-04T22:33:33.517Z,4.07
2022-12-04T22:36:08.512Z,4.83
2022-12-04T22:38:52.408Z,5.10
2022-12-04T22:41:24.050Z,5.00
2022-12-04T22:43:51.047Z,4.97
2022-12-04T22:46:18.567Z,4.80
2022-12-04T22:48:45.273Z,5.57
2022-12-04T22:51:17.948Z,5.83
2022-12-04T22:53:50.233Z,5.67
2022-12-04T22:56:20.303Z,5.90
2022-12-04T22:58:47.219Z,5.47
2022-12-04T23:01:20.694Z,5.87
2022-12-04T23:03:48.757Z,6.03
2022-12-04T23:06:17.210Z,6.40
2022-12-04T23:08:44.943Z,6.03
2022-12-04T23:11:20.279Z,4.63
2022-12-04T23:13:51.951Z,4.00
2022-12-04T23:16:20.542Z,3.57
2022-12-04T23:18:47.921Z,3.50
2022-12-04T23:21:15.769Z,3.20
2022-12-04T23:23:44.064Z,3.17
2022-12-04T23:26:15.124Z,3.13
2022-12-04T23:28:42.396Z,3.30
2022-12-04T23:31:10.977Z,2.90
2022-12-04T23:33:39.431Z,3.33
2022-12-04T23:36:07.531Z,3.37
2022-12-04T23:38:35.534Z,3.53
2022-12-04T23:41:07.793Z,4.17
2022-12-04T23:43:35.295Z,3.87
2022-12-04T23:46:07.295Z,4.03
2022-12-04T23:48:37.352Z,3.73
2022-12-04T23:51:04.089Z,3.80
2022-12-04T23:53:30.749Z,4.37
2022-12-04T23:55:59.549Z,3.93
2022-12-04T23:58:26.590Z,4.17
